Time;durP1;ratioP1;P1;durP2;ratioP2;P2;SDS_P1;SDS_P2;PMS_P1;PMS_P2;Temp;Humidity;BMP_temperature;BMP_pressure;BME280_temperature;BME280_humidity;BME280_pressure;Samples;Min_cycle;Max_cycle;Signal;HPM_P1;HPM_P2
2022/12/09 00:02:25;;;;;;;;;50.75;40.25;;;;;5.09;74.13;99796.25;5073689;27;45428;-69
2022/12/09 00:04:50;;;;;;;;;41.25;36.00;;;;;5.09;73.49;99791.88;5073639;27;45436;-70
2022/12/09 00:07:15;;;;;;;;;46.75;40.75;;;;;5.07;73.90;99790.22;5080469;27;45504;-69
2022/12/09 00:09:41;;;;;;;;;50.50;42.00;;;;;5.02;73.72;99777.31;5082433;27;45470;-70
2022/12/09 00:12:06;;;;;;;;;50.50;42.25;;;;;4.71;73.63;99733.06;5081996;27;45419;-69
2022/12/09 00:14:31;;;;;;;;;52.00;44.00;;;;;4.94;73.59;99784.50;5082343;27;45676;-69
2022/12/09 00:16:56;;;;;;;;;59.50;49.25;;;;;4.94;74.23;99776.69;5081758;27;45434;-70
2022/12/09 00:19:22;;;;;;;;;54.50;45.50;;;;;4.91;74.44;99768.97;5081519;27;58276;-69
2022/12/09 00:21:47;;;;;;;;;51.00;43.00;;;;;4.90;74.27;99775.94;5083929;27;45469;-69
2022/12/09 00:24:16;;;;;;;;;50.50;42.75;;;;;5.02;73.89;99779.06;5082812;27;45420;-69
2022/12/09 00:26:44;;;;;;;;;47.75;39.00;;;;;5.00;73.95;99773.91;5083142;27;45474;-71
2022/12/09 00:29:10;;;;;;;;;50.50;43.75;;;;;4.99;74.27;99780.00;5080115;28;46767;-71
2022/12/09 00:31:36;;;;;;;;;55.25;46.50;;;;;4.96;74.46;99770.53;5080669;27;45578;-69
2022/12/09 00:34:05;;;;;;;;;56.75;44.75;;;;;4.96;74.74;99769.69;5082612;27;45447;-70
2022/12/09 00:36:31;;;;;;;;;51.00;41.00;;;;;4.98;74.45;99765.28;5083154;27;45633;-70
2022/12/09 00:38:58;;;;;;;;;53.50;43.25;;;;;4.96;74.61;99767.94;5082538;27;46036;-71
2022/12/09 00:41:24;;;;;;;;;55.75;43.00;;;;;4.95;74.91;99761.03;5078335;27;45220;-69
2022/12/09 00:43:50;;;;;;;;;53.75;45.25;;;;;4.96;75.18;99769.69;5079136;27;45283;-70
2022/12/09 00:46:16;;;;;;;;;39.00;33.25;;;;;4.94;74.92;99763.66;5079434;27;45521;-71
2022/12/09 00:48:44;;;;;;;;;51.00;42.75;;;;;4.90;74.91;99769.88;5094571;27;47536;-70
2022/12/09 00:51:12;;;;;;;;;53.00;43.00;;;;;4.89;75.06;99771.63;5060361;28;45564;-70
2022/12/09 00:53:38;;;;;;;;;44.25;39.00;;;;;4.91;75.21;99761.13;5077281;27;45352;-70
2022/12/09 00:56:04;;;;;;;;;55.75;45.25;;;;;4.91;75.20;99758.53;5078109;28;45484;-70
2022/12/09 00:58:29;;;;;;;;;50.00;42.50;;;;;4.91;75.63;99766.34;5078280;27;46287;-70
2022/12/09 01:00:54;;;;;;;;;48.00;41.00;;;;;4.88;75.26;99750.81;5077747;27;45383;-70
2022/12/09 01:03:20;;;;;;;;;52.00;44.50;;;;;4.83;75.43;99749.19;5078364;27;45339;-70
2022/12/09 01:05:46;;;;;;;;;50.50;44.00;;;;;4.77;75.57;99745.91;5095024;27;45631;-70
2022/12/09 01:08:12;;;;;;;;;44.75;40.25;;;;;4.73;75.68;99746.91;5094910;27;48142;-69
2022/12/09 01:10:39;;;;;;;;;57.00;46.75;;;;;4.70;76.03;99749.59;5078430;27;45421;-69
2022/12/09 01:13:05;;;;;;;;;53.50;44.50;;;;;4.65;75.97;99749.75;5077695;27;45356;-69
2022/12/09 01:15:31;;;;;;;;;59.25;45.25;;;;;4.62;76.77;99752.44;5080201;27;45263;-70
2022/12/09 01:17:56;;;;;;;;;54.75;45.50;;;;;4.61;76.52;99751.56;5080100;27;46445;-69
2022/12/09 01:20:22;;;;;;;;;49.75;42.50;;;;;4.63;76.52;99743.72;5078535;27;45362;-71
2022/12/09 01:22:47;;;;;;;;;54.50;43.50;;;;;4.64;76.27;99748.88;5077687;27;45444;-70
2022/12/09 01:25:13;;;;;;;;;54.75;44.00;;;;;4.65;76.23;99744.53;5077999;27;45558;-70
2022/12/09 01:27:38;;;;;;;;;60.50;47.00;;;;;4.55;76.17;99738.72;5080224;27;45993;-70
2022/12/09 01:30:07;;;;;;;;;51.25;43.00;;;;;4.62;75.99;99755.03;5077000;28;45197;-68
2022/12/09 01:32:33;;;;;;;;;47.00;39.75;;;;;4.61;76.21;99748.13;5077212;27;45366;-71
2022/12/09 01:34:58;;;;;;;;;56.00;47.00;;;;;4.60;75.83;99738.59;5077787;27;45537;-69
2022/12/09 01:37:24;;;;;;;;;53.25;41.75;;;;;4.63;76.05;99743.72;5077518;27;45985;-70
2022/12/09 01:39:49;;;;;;;;;47.00;40.25;;;;;4.59;75.95;99748.16;5077766;27;45342;-69
2022/12/09 01:42:23;;;;;;;;;51.25;43.25;;;;;4.58;76.06;99745.63;5076423;28;45316;-68
2022/12/09 01:45:18;;;;;;;;;48.75;39.25;;;;;4.51;76.21;99740.59;5077453;27;45606;-69
2022/12/09 01:47:44;;;;;;;;;51.00;43.00;;;;;4.51;76.25;99753.59;5068464;27;46229;-70
2022/12/09 01:50:10;;;;;;;;;52.25;43.75;;;;;4.47;76.20;99746.78;5077110;28;45426;-69
2022/12/09 01:52:35;;;;;;;;;51.75;43.00;;;;;4.48;76.20;99748.47;5078861;27;45441;-69
2022/12/09 01:55:01;;;;;;;;;58.50;45.75;;;;;4.45;76.32;99750.31;5080657;27;45450;-69
2022/12/09 01:57:26;;;;;;;;;59.00;45.75;;;;;4.42;76.25;99745.19;5076730;27;45366;-70
2022/12/09 01:59:52;;;;;;;;;47.00;40.50;;;;;4.42;76.30;99743.44;5076904;27;45241;-68
2022/12/09 02:02:18;;;;;;;;;54.25;42.00;;;;;4.46;76.57;99754.63;5075324;27;45272;-69
2022/12/09 02:04:47;;;;;;;;;51.00;43.25;;;;;4.43;76.58;99752.09;5077139;27;45199;-67
2022/12/09 02:07:13;;;;;;;;;51.75;43.00;;;;;4.23;76.54;99725.72;5076729;28;46133;-70
2022/12/09 02:09:39;;;;;;;;;53.50;43.25;;;;;4.33;76.76;99744.53;5075040;27;45526;-70
2022/12/09 02:12:22;;;;;;;;;56.50;46.50;;;;;4.29;76.56;99744.69;5076678;28;45325;-70
2022/12/09 02:14:50;;;;;;;;;25.25;20.75;;;;;4.29;76.79;99747.28;5077500;27;45365;-69
2022/12/09 02:17:32;;;;;;;;;51.00;43.00;;;;;4.29;77.14;99744.69;5077691;27;46781;-70
2022/12/09 02:20:02;;;;;;;;;55.25;45.25;;;;;4.30;76.99;99742.03;5076321;27;45352;-70
2022/12/09 02:22:36;;;;;;;;;57.00;46.25;;;;;4.31;77.30;99737.69;5076303;28;45512;-70
2022/12/09 02:25:15;;;;;;;;;52.00;43.25;;;;;4.30;76.83;99730.78;5076739;27;45249;-70
2022/12/09 02:28:02;;;;;;;;;50.25;40.25;;;;;4.38;76.98;99729.66;5077087;27;46343;-69
2022/12/09 02:30:49;;;;;;;;;52.25;43.75;;;;;4.33;76.50;99731.53;5091847;27;45660;-70
2022/12/09 02:33:55;;;;;;;;;55.75;45.50;;;;;4.29;76.84;99718.66;5076977;27;45400;-70
2022/12/09 02:36:26;;;;;;;;;55.25;45.00;;;;;4.23;77.02;99725.72;5077146;27;45263;-69
2022/12/09 02:38:52;;;;;;;;;51.00;43.00;;;;;4.23;77.00;99727.47;5077786;27;48506;-69
2022/12/09 02:41:23;;;;;;;;;49.50;40.75;;;;;4.21;77.14;99724.91;5078221;27;45386;-72
2022/12/09 02:43:54;;;;;;;;;50.50;44.00;;;;;4.20;77.18;99720.59;5077488;27;45192;-70
2022/12/09 02:46:21;;;;;;;;;43.00;37.50;;;;;4.12;77.22;99717.34;5076802;27;45421;-68
2022/12/09 02:48:53;;;;;;;;;49.75;41.00;;;;;4.06;77.23;99721.00;5076003;28;46248;-70
2022/12/09 02:51:21;;;;;;;;;53.00;43.00;;;;;4.03;77.01;99713.25;5075824;27;45547;-70
2022/12/09 02:53:52;;;;;;;;;40.75;37.50;;;;;3.98;76.89;99703.84;5075864;27;45255;-69
2022/12/09 02:56:18;;;;;;;;;53.00;41.25;;;;;4.04;77.28;99712.38;5076355;27;45414;-70
2022/12/09 02:58:43;;;;;;;;;47.75;39.25;;;;;3.95;77.08;99704.81;5075744;27;46011;-69
2022/12/09 03:01:39;;;;;;;;;42.25;37.75;;;;;3.92;76.65;99705.72;5075711;27;45448;-70
2022/12/09 03:04:07;;;;;;;;;43.75;38.50;;;;;3.90;77.12;99723.13;5075781;28;45374;-69
2022/12/09 03:06:45;;;;;;;;;40.50;37.25;;;;;3.85;76.91;99719.81;5077031;27;45271;-70
2022/12/09 03:09:19;;;;;;;;;40.75;37.00;;;;;3.78;76.65;99708.72;5075610;27;46405;-70
2022/12/09 03:11:46;;;;;;;;;44.75;38.25;;;;;3.83;76.57;99711.19;5075893;27;45427;-70
2022/12/09 03:14:18;;;;;;;;;46.25;39.00;;;;;3.84;76.54;99714.66;5075745;27;45437;-71
2022/12/09 03:16:55;;;;;;;;;36.75;35.50;;;;;3.86;76.65;99715.47;5075832;27;45313;-70
2022/12/09 03:19:30;;;;;;;;;38.50;36.25;;;;;3.79;76.63;99704.34;5075952;27;46150;-70
2022/12/09 03:22:00;;;;;;;;;31.00;30.50;;;;;3.79;76.97;99707.81;5076366;27;45436;-71
2022/12/09 03:24:33;;;;;;;;;42.25;36.75;;;;;3.79;76.71;99702.63;5076977;27;45421;-71
2022/12/09 03:27:05;;;;;;;;;47.50;39.00;;;;;3.82;76.44;99706.88;5077197;28;45323;-70
2022/12/09 03:29:34;;;;;;;;;41.75;37.25;;;;;3.80;77.06;99704.31;5078204;27;45589;-71
2022/12/09 03:31:59;;;;;;;;;46.25;37.75;;;;;3.81;77.07;99699.97;5076136;27;45452;-70
2022/12/09 03:34:29;;;;;;;;;33.00;31.50;;;;;3.82;76.75;99700.84;5091446;27;45406;-70
2022/12/09 03:36:57;;;;;;;;;40.00;35.00;;;;;3.76;76.97;99694.91;5075469;27;45410;-69
2022/12/09 03:39:30;;;;;;;;;36.50;33.50;;;;;3.79;76.36;99700.03;5074996;27;46460;-69
2022/12/09 03:42:00;;;;;;;;;41.50;35.50;;;;;3.78;75.99;99694.84;5075123;27;45306;-69
2022/12/09 03:44:36;;;;;;;;;44.75;37.25;;;;;3.79;76.64;99701.75;5075325;28;45322;-69
2022/12/09 03:47:03;;;;;;;;;41.75;34.75;;;;;3.79;76.30;99693.94;5075384;28;45369;-69
2022/12/09 03:49:29;;;;;;;;;36.50;35.00;;;;;3.78;76.07;99690.50;5075262;27;46105;-69
2022/12/09 03:52:07;;;;;;;;;45.25;38.75;;;;;3.75;75.81;99692.31;5074448;28;45287;-69
2022/12/09 03:54:46;;;;;;;;;26.75;26.75;;;;;3.73;75.88;99688.91;5077221;27;45289;-69
2022/12/09 03:57:15;;;;;;;;;38.50;34.00;;;;;3.77;76.67;99691.41;5074286;28;45256;-69
2022/12/09 03:59:43;;;;;;;;;35.50;34.00;;;;;3.80;76.32;99696.53;5075079;28;45516;-70
2022/12/09 04:02:10;;;;;;;;;43.75;36.50;;;;;3.78;76.26;99689.63;5075184;27;45482;-69
2022/12/09 04:04:40;;;;;;;;;39.75;36.75;;;;;3.74;75.53;99683.69;5075340;27;45280;-69
2022/12/09 04:07:07;;;;;;;;;37.75;35.50;;;;;3.77;76.21;99680.13;5075800;27;45483;-70
2022/12/09 04:09:32;;;;;;;;;39.25;35.75;;;;;3.77;75.67;99693.13;5075109;27;45403;-70
2022/12/09 04:11:58;;;;;;;;;37.00;34.75;;;;;3.68;75.87;99678.63;5075896;27;45373;-70
2022/12/09 04:14:23;;;;;;;;;35.50;35.00;;;;;3.73;75.80;99681.97;5077759;27;45380;-70
2022/12/09 04:16:49;;;;;;;;;36.00;33.75;;;;;3.67;75.59;99674.31;5079035;27;45431;-69
2022/12/09 04:19:14;;;;;;;;;35.25;34.75;;;;;3.62;75.99;99683.97;5079984;27;46391;-69
2022/12/09 04:21:39;;;;;;;;;42.25;38.75;;;;;3.50;75.72;99666.97;5078581;27;45301;-69
2022/12/09 04:24:05;;;;;;;;;36.25;35.25;;;;;3.50;75.65;99666.97;5078878;27;45442;-70
2022/12/09 04:26:31;;;;;;;;;41.50;38.25;;;;;3.54;76.28;99672.91;5079302;27;45234;-71
2022/12/09 04:28:56;;;;;;;;;40.50;37.50;;;;;3.56;76.09;99665.94;5078333;27;45278;-69
2022/12/09 04:31:21;;;;;;;;;38.25;35.50;;;;;3.57;76.09;99663.31;5078260;27;45886;-70
2022/12/09 04:33:47;;;;;;;;;43.75;38.75;;;;;3.50;75.82;99656.56;5078353;27;45226;-69
2022/12/09 04:36:16;;;;;;;;;34.25;32.25;;;;;3.49;75.42;99662.66;5078566;27;45235;-70
2022/12/09 04:38:41;;;;;;;;;46.00;41.00;;;;;3.47;76.25;99665.28;5077894;27;45409;-70
2022/12/09 04:41:07;;;;;;;;;37.25;34.00;;;;;3.46;75.89;99666.16;5076775;28;45741;-69
2022/12/09 04:43:33;;;;;;;;;33.25;33.00;;;;;3.39;75.74;99659.41;5079962;27;45379;-69
2022/12/09 04:46:04;;;;;;;;;32.75;32.75;;;;;3.41;75.74;99665.44;5078078;27;45565;-69
2022/12/09 04:48:29;;;;;;;;;41.75;38.00;;;;;3.34;75.86;99656.09;5077976;27;45849;-69
2022/12/09 04:50:55;;;;;;;;;38.25;36.75;;;;;3.38;75.78;99668.13;5076391;27;45322;-70
2022/12/09 04:53:21;;;;;;;;;40.25;35.00;;;;;3.37;75.93;99666.41;5077012;27;45437;-71
2022/12/09 04:55:46;;;;;;;;;36.50;35.50;;;;;3.38;75.93;99673.31;5095483;27;45478;-69
2022/12/09 04:58:12;;;;;;;;;41.50;37.50;;;;;3.35;75.82;99660.38;5079153;27;45466;-70
2022/12/09 05:00:37;;;;;;;;;37.75;34.00;;;;;3.38;76.09;99662.06;5079127;28;45335;-70
2022/12/09 05:03:03;;;;;;;;;36.25;35.00;;;;;3.40;75.75;99665.50;5081570;27;45358;-70
2022/12/09 05:05:29;;;;;;;;;34.50;34.50;;;;;3.37;74.88;99661.19;5078706;27;45265;-69
2022/12/09 05:07:55;;;;;;;;;31.00;31.00;;;;;3.32;74.57;99663.94;5080128;27;46369;-68
2022/12/09 05:10:20;;;;;;;;;32.50;27.50;;;;;3.31;75.25;99670.03;5078742;27;45384;-69
2022/12/09 05:12:45;;;;;;;;;35.50;31.75;;;;;3.10;74.67;99637.63;5093493;27;45418;-71
2022/12/09 05:15:10;;;;;;;;;33.00;32.75;;;;;3.18;74.65;99661.66;5077744;27;45501;-68
2022/12/09 05:17:36;;;;;;;;;31.50;30.50;;;;;3.24;75.24;99673.66;5077486;27;45307;-70
2022/12/09 05:20:02;;;;;;;;;27.25;27.25;;;;;3.22;74.58;99671.09;5077503;27;45326;-69
2022/12/09 05:22:27;;;;;;;;;31.00;31.00;;;;;3.23;74.83;99669.38;5077537;27;45450;-71
2022/12/09 05:24:52;;;;;;;;;33.50;33.25;;;;;3.26;75.74;99668.41;5077415;27;45219;-71
2022/12/09 05:27:17;;;;;;;;;30.00;28.00;;;;;3.30;75.07;99670.91;5075610;27;45265;-69
2022/12/09 05:29:43;;;;;;;;;31.00;31.00;;;;;3.27;74.77;99665.81;5077211;27;45375;-70
2022/12/09 05:32:08;;;;;;;;;35.75;32.00;;;;;3.26;74.83;99676.22;5079588;27;45311;-69
2022/12/09 05:34:33;;;;;;;;;33.25;31.75;;;;;3.20;74.68;99672.88;5080356;28;45270;-69
2022/12/09 05:36:59;;;;;;;;;28.00;28.00;;;;;3.18;75.17;99676.38;5078674;27;45552;-70
2022/12/09 05:39:24;;;;;;;;;32.00;32.00;;;;;3.17;74.62;99670.34;5077644;27;45214;-70
2022/12/09 05:41:49;;;;;;;;;28.00;28.00;;;;;3.22;74.18;99667.66;5078551;27;45138;-69
2022/12/09 05:44:15;;;;;;;;;28.75;26.25;;;;;3.24;74.68;99676.28;5079323;27;45173;-70
2022/12/09 05:46:41;;;;;;;;;29.25;29.00;;;;;3.18;73.76;99673.78;5082079;27;46081;-68
2022/12/09 05:49:06;;;;;;;;;24.50;23.00;;;;;3.11;74.17;99669.63;5080967;27;45384;-70
2022/12/09 05:51:32;;;;;;;;;32.25;28.75;;;;;2.97;73.74;99641.41;5077608;27;45579;-69
2022/12/09 05:54:03;;;;;;;;;28.25;26.75;;;;;3.17;74.38;99678.16;5077622;27;45383;-70
2022/12/09 05:56:28;;;;;;;;;29.25;28.75;;;;;3.16;73.95;99672.97;5077189;28;45203;-69
2022/12/09 05:58:54;;;;;;;;;30.25;27.75;;;;;2.90;73.40;99630.28;5092999;27;46506;-69
2022/12/09 06:01:20;;;;;;;;;31.00;30.50;;;;;3.19;73.59;99683.31;5079621;27;45356;-70
2022/12/09 06:03:47;;;;;;;;;26.75;25.50;;;;;3.17;73.43;99685.94;5079812;27;45550;-68
2022/12/09 06:06:15;;;;;;;;;20.50;20.50;;;;;3.06;73.86;99683.59;5078925;27;45499;-70
2022/12/09 06:08:42;;;;;;;;;31.00;29.25;;;;;3.09;73.64;99689.59;5078249;27;45415;-70
2022/12/09 06:11:10;;;;;;;;;33.25;33.00;;;;;3.08;73.54;99691.38;5094339;27;45204;-69
2022/12/09 06:13:36;;;;;;;;;21.25;20.50;;;;;3.05;73.02;99689.69;5079513;27;45336;-70
2022/12/09 06:16:05;;;;;;;;;24.25;21.50;;;;;3.09;72.27;99700.88;5076670;27;45313;-69
2022/12/09 06:18:31;;;;;;;;;21.50;21.50;;;;;2.84;72.06;99667.69;5092116;27;45291;-69
2022/12/09 06:20:57;;;;;;;;;21.00;20.00;;;;;2.88;71.82;99673.63;5077753;28;45440;-70
2022/12/09 06:23:22;;;;;;;;;26.25;25.50;;;;;3.04;72.66;99707.91;5078117;27;45235;-69
2022/12/09 06:25:48;;;;;;;;;25.25;25.25;;;;;2.96;72.87;99700.28;5077278;27;45524;-70
2022/12/09 06:28:13;;;;;;;;;30.25;29.50;;;;;2.96;72.14;99710.69;5076634;27;45223;-69
2022/12/09 06:30:39;;;;;;;;;26.75;26.25;;;;;2.94;72.33;99711.63;5076967;27;45293;-68
2022/12/09 06:33:04;;;;;;;;;17.75;17.75;;;;;2.92;72.57;99716.84;5093349;27;45184;-70
2022/12/09 06:35:30;;;;;;;;;30.25;29.00;;;;;2.86;72.17;99716.97;5094441;27;46578;-70
2022/12/09 06:37:55;;;;;;;;;24.00;24.00;;;;;2.54;72.13;99666.59;5080418;27;53159;-69
2022/12/09 06:40:21;;;;;;;;;25.75;25.75;;;;;2.74;72.53;99715.53;5077849;27;47184;-70
2022/12/09 06:42:49;;;;;;;;;28.50;25.00;;;;;2.71;72.32;99711.22;5077566;27;45510;-70
2022/12/09 06:45:15;;;;;;;;;24.25;24.00;;;;;2.68;72.89;99700.91;5075815;27;46184;-68
2022/12/09 06:47:41;;;;;;;;;24.00;21.50;;;;;2.65;71.96;99708.78;5077382;27;45362;-69
2022/12/09 06:50:07;;;;;;;;;25.75;25.75;;;;;2.64;72.57;99701.88;5077843;27;45357;-70
2022/12/09 06:52:33;;;;;;;;;28.75;23.75;;;;;2.63;73.08;99700.16;5075948;28;45566;-70
2022/12/09 06:54:58;;;;;;;;;24.00;23.75;;;;;2.54;72.52;99692.56;5076735;27;45354;-70
2022/12/09 06:57:23;;;;;;;;;21.25;20.75;;;;;2.57;72.66;99713.28;5076333;27;45293;-70
2022/12/09 06:59:49;;;;;;;;;25.25;24.25;;;;;2.55;72.39;99704.66;5074724;27;45746;-71
2022/12/09 07:02:14;;;;;;;;;25.25;23.50;;;;;2.57;72.34;99713.28;5076079;27;45481;-71
2022/12/09 07:04:39;;;;;;;;;29.00;26.00;;;;;2.57;71.95;99708.09;5076350;27;45224;-69
2022/12/09 07:07:05;;;;;;;;;33.00;32.75;;;;;2.62;73.00;99711.44;5076425;27;45416;-72
2022/12/09 07:09:30;;;;;;;;;29.00;28.75;;;;;2.63;72.97;99703.59;5079174;27;45362;-70
2022/12/09 07:11:55;;;;;;;;;40.25;37.75;;;;;2.58;72.43;99702.00;5078976;27;45551;-70
2022/12/09 07:14:21;;;;;;;;;33.00;30.75;;;;;2.64;72.82;99701.88;5076383;27;46045;-68
2022/12/09 07:16:46;;;;;;;;;37.75;35.25;;;;;2.62;72.59;99708.84;5075900;27;54331;-70
2022/12/09 07:19:17;;;;;;;;;37.75;36.00;;;;;2.59;72.72;99703.72;5077528;27;45709;-70
2022/12/09 07:21:42;;;;;;;;;27.50;27.50;;;;;2.65;72.70;99711.38;5079446;27;45167;-70
2022/12/09 07:24:08;;;;;;;;;19.50;19.00;;;;;2.58;72.49;99714.97;5076940;27;45268;-70
2022/12/09 07:26:34;;;;;;;;;21.50;21.25;;;;;2.51;71.79;99703.84;5078592;27;45244;-70
2022/12/09 07:29:04;;;;;;;;;24.75;24.75;;;;;2.54;71.47;99729.75;5079333;27;45242;-68
2022/12/09 07:31:30;;;;;;;;;15.50;15.50;;;;;2.44;71.02;99729.09;5077044;27;45325;-70
2022/12/09 07:33:56;;;;;;;;;27.75;22.75;;;;;2.38;71.53;99724.03;5075545;28;48110;-69
2022/12/09 07:36:24;;;;;;;;;14.75;14.75;;;;;2.34;71.16;99731.03;5077808;28;45374;-69
2022/12/09 07:38:58;;;;;;;;;21.25;21.25;;;;;2.30;70.71;99731.13;5079538;27;45251;-68
2022/12/09 07:41:24;;;;;;;;;22.75;22.50;;;;;2.26;71.37;99739.88;5079227;27;45329;-68
2022/12/09 07:43:49;;;;;;;;;24.00;23.50;;;;;2.22;71.07;99727.84;5075531;27;46178;-69
2022/12/09 07:46:17;;;;;;;;;22.25;22.25;;;;;2.26;71.33;99737.25;5075478;27;45359;-69
2022/12/09 07:48:42;;;;;;;;;24.50;24.25;;;;;2.23;71.76;99732.13;5075669;27;45341;-70
2022/12/09 07:51:08;;;;;;;;;27.25;26.50;;;;;2.20;71.09;99738.22;5078567;27;45492;-68
2022/12/09 07:53:35;;;;;;;;;30.50;30.50;;;;;2.22;72.09;99739.06;5078531;27;46236;-72
2022/12/09 07:56:05;;;;;;;;;38.00;32.75;;;;;2.22;71.28;99739.06;5078645;28;45377;-72
2022/12/09 07:58:31;;;;;;;;;28.75;26.50;;;;;2.23;71.30;99737.31;5078971;27;45372;-72
2022/12/09 08:01:03;;;;;;;;;28.50;27.00;;;;;2.28;71.97;99745.88;5078545;27;45534;-74
2022/12/09 08:03:29;;;;;;;;;28.75;28.50;;;;;2.22;71.66;99741.66;5078634;27;45318;-68
2022/12/09 08:05:54;;;;;;;;;30.75;29.50;;;;;2.23;72.55;99745.13;5077036;27;45406;-65
2022/12/09 08:08:20;;;;;;;;;31.75;31.00;;;;;2.23;71.19;99747.72;5080975;27;45411;-69
2022/12/09 08:10:45;;;;;;;;;27.25;25.75;;;;;2.21;71.31;99744.28;5078984;27;45278;-73
2022/12/09 08:13:11;;;;;;;;;32.00;31.25;;;;;2.19;72.03;99739.97;5077298;27;46185;-66
2022/12/09 08:15:37;;;;;;;;;22.00;22.00;;;;;2.17;71.67;99743.47;5092535;27;45486;-70
2022/12/09 08:18:02;;;;;;;;;32.50;30.50;;;;;2.08;71.95;99731.53;5076027;27;45452;-73
2022/12/09 08:20:29;;;;;;;;;28.00;27.50;;;;;2.14;72.37;99744.41;5077200;27;45560;-70
2022/12/09 08:22:54;;;;;;;;;27.50;26.00;;;;;2.17;71.81;99740.88;5079280;27;47071;-72
2022/12/09 08:25:20;;;;;;;;;23.00;23.00;;;;;2.16;71.79;99742.63;5076306;27;45567;-70
2022/12/09 08:27:45;;;;;;;;;29.00;27.75;;;;;2.18;71.63;99743.47;5078561;27;45397;-75
2022/12/09 08:30:12;;;;;;;;;37.75;36.25;;;;;2.18;71.89;99740.00;5079539;28;45514;-70
2022/12/09 08:32:37;;;;;;;;;31.25;31.00;;;;;2.23;71.65;99742.50;5079194;27;45418;-73
2022/12/09 08:35:03;;;;;;;;;36.00;32.75;;;;;2.21;72.51;99729.56;5078758;27;45239;-70
2022/12/09 08:37:28;;;;;;;;;32.50;32.50;;;;;2.27;72.47;99738.97;5078361;28;45220;-72
2022/12/09 08:39:53;;;;;;;;;27.25;27.25;;;;;2.31;71.75;99740.63;5078519;27;45532;-66
2022/12/09 08:42:19;;;;;;;;;31.25;28.75;;;;;2.27;70.98;99745.00;5077752;27;45619;-74
2022/12/09 08:44:44;;;;;;;;;29.25;28.25;;;;;2.23;71.32;99747.72;5073253;27;45423;-72
2022/12/09 08:47:09;;;;;;;;;29.00;29.00;;;;;2.22;71.77;99748.59;5089181;27;45580;-75
2022/12/09 08:49:36;;;;;;;;;29.25;29.25;;;;;2.25;72.27;99744.19;5083676;27;45456;-71
2022/12/09 08:52:02;;;;;;;;;31.50;31.50;;;;;2.09;71.56;99716.81;5085384;27;45452;-75
2022/12/09 08:54:27;;;;;;;;;26.00;25.25;;;;;2.39;72.30;99748.25;5076279;28;45483;-74
2022/12/09 08:56:54;;;;;;;;;38.50;36.00;;;;;2.36;71.85;99754.38;5092673;27;45409;-72
2022/12/09 08:59:20;;;;;;;;;33.00;32.00;;;;;2.38;71.89;99757.78;5074556;27;45573;-77
2022/12/09 09:01:46;;;;;;;;;36.75;36.25;;;;;2.45;72.50;99742.94;5059675;27;45420;-71
2022/12/09 09:04:15;;;;;;;;;37.75;35.75;;;;;2.45;72.43;99741.19;5082254;27;45226;-72
2022/12/09 09:06:42;;;;;;;;;33.25;33.25;;;;;2.60;72.24;99754.75;5096386;27;45413;-76
2022/12/09 09:09:09;;;;;;;;;32.25;31.25;;;;;2.64;71.67;99753.81;5092838;27;45428;-73
2022/12/09 09:11:35;;;;;;;;;40.50;38.00;;;;;2.66;71.78;99748.59;5075306;27;46676;-72
2022/12/09 09:14:06;;;;;;;;;35.75;35.25;;;;;2.72;72.47;99753.66;5085418;27;45403;-73
2022/12/09 09:16:32;;;;;;;;;34.50;34.50;;;;;2.71;71.17;99755.38;5069217;27;45541;-75
2022/12/09 09:18:58;;;;;;;;;32.75;30.75;;;;;2.67;71.35;99752.91;5092105;27;45343;-73
2022/12/09 09:21:25;;;;;;;;;26.75;25.00;;;;;2.65;71.05;99758.09;5092086;27;45476;-75
2022/12/09 09:23:51;;;;;;;;;35.25;33.25;;;;;2.51;71.14;99734.19;5087575;27;45477;-75
2022/12/09 09:26:22;;;;;;;;;38.50;34.75;;;;;2.59;71.57;99750.44;5086168;27;45378;-73
2022/12/09 09:28:48;;;;;;;;;39.00;37.00;;;;;2.67;71.62;99751.13;5076768;27;45356;-74
2022/12/09 09:31:17;;;;;;;;;45.25;39.25;;;;;2.65;71.82;99742.53;5086033;27;46674;-75
2022/12/09 09:33:43;;;;;;;;;43.00;38.25;;;;;2.74;71.55;99752.72;5069953;27;45170;-78
2022/12/09 09:36:13;;;;;;;;;39.50;37.50;;;;;2.66;71.07;99736.44;5074026;27;45476;-75
2022/12/09 09:38:38;;;;;;;;;39.25;38.00;;;;;2.78;71.75;99751.75;5071545;27;45397;-77
2022/12/09 09:41:18;;;;;;;;;44.00;39.25;;;;;2.78;71.18;99756.97;5092421;27;45639;-78
2022/12/09 09:43:44;;;;;;;;;42.50;39.25;;;;;2.75;71.82;99753.59;5081080;27;45267;-73
2022/12/09 09:46:19;;;;;;;;;72.50;59.75;;;;;2.84;71.01;99756.00;5084213;27;45278;-76
2022/12/09 09:48:46;;;;;;;;;49.25;42.75;;;;;2.87;71.73;99755.06;5074278;27;45409;-72
2022/12/09 09:51:18;;;;;;;;;36.00;34.25;;;;;2.81;71.15;99750.00;5092333;27;46485;-71
2022/12/09 09:53:48;;;;;;;;;34.50;34.00;;;;;2.78;70.89;99754.34;5085468;27;45396;-75
2022/12/09 09:56:24;;;;;;;;;41.25;38.50;;;;;2.81;72.11;99765.56;5076842;27;45530;-76
2022/12/09 09:59:27;;;;;;;;;41.50;38.50;;;;;2.83;71.14;99769.88;5079951;27;45462;-74
2022/12/09 10:02:12;;;;;;;;;38.25;36.75;;;;;2.69;71.17;99751.97;5087022;27;45458;-73
2022/12/09 10:04:44;;;;;;;;;34.50;33.00;;;;;2.44;71.78;99721.31;5101960;27;45610;-74
2022/12/09 10:07:19;;;;;;;;;37.25;36.00;;;;;2.61;71.53;99757.31;5075320;27;45422;-68
2022/12/09 10:09:53;;;;;;;;;39.50;38.00;;;;;2.70;71.63;99755.44;5064763;28;45468;-71
2022/12/09 10:12:59;;;;;;;;;45.00;39.25;;;;;2.83;71.65;99746.50;5056617;28;46296;-73
2022/12/09 10:15:29;;;;;;;;;29.00;29.00;;;;;2.92;71.39;99742.81;5049303;27;45514;-74
2022/12/09 10:18:31;;;;;;;;;43.50;39.00;;;;;2.87;70.93;99736.88;5054489;28;45496;-73
2022/12/09 10:20:56;;;;;;;;;45.00;39.50;;;;;2.87;70.83;99745.53;5035997;28;45572;-73
2022/12/09 10:23:22;;;;;;;;;52.25;41.50;;;;;2.90;71.34;99742.00;5054849;28;45540;-74
2022/12/09 10:26:01;;;;;;;;;45.00;40.00;;;;;2.90;71.18;99713.41;5056196;28;45503;-72
2022/12/09 10:28:40;;;;;;;;;49.25;43.25;;;;;3.03;70.91;99732.19;5057579;28;45433;-74
2022/12/09 10:31:09;;;;;;;;;34.75;34.50;;;;;3.12;70.79;99733.72;5055958;28;45504;-74
2022/12/09 10:33:37;;;;;;;;;41.00;36.75;;;;;3.00;70.46;99730.50;5056137;28;46129;-72
2022/12/09 10:36:04;;;;;;;;;42.00;39.00;;;;;2.89;71.06;99727.28;5055732;28;45369;-72
2022/12/09 10:38:36;;;;;;;;;49.50;39.00;;;;;2.83;71.00;99730.91;5055859;28;45391;-73
2022/12/09 10:41:11;;;;;;;;;74.50;59.00;;;;;2.73;70.91;99721.59;5055120;28;45446;-72
2022/12/09 10:43:39;;;;;;;;;57.75;47.00;;;;;2.72;70.93;99730.28;5053938;28;45423;-71
2022/12/09 10:46:11;;;;;;;;;57.25;49.25;;;;;2.72;71.25;99722.50;5054090;28;45584;-72
2022/12/09 10:48:51;;;;;;;;;46.00;39.25;;;;;2.69;71.59;99709.56;5054370;28;46055;-72
2022/12/09 10:51:20;;;;;;;;;43.00;39.75;;;;;2.71;72.16;99711.22;5053967;28;45464;-71
2022/12/09 10:53:53;;;;;;;;;39.25;34.00;;;;;2.74;71.94;99720.72;5054488;28;45483;-72
2022/12/09 10:56:24;;;;;;;;;48.00;42.00;;;;;2.78;71.83;99715.41;5054404;28;45535;-70
2022/12/09 10:59:09;;;;;;;;;49.50;40.75;;;;;2.68;71.62;99703.50;5055078;28;45494;-70
2022/12/09 11:02:07;;;;;;;;;41.25;39.00;;;;;2.76;72.05;99704.19;5053201;28;45499;-74
2022/12/09 11:04:37;;;;;;;;;42.50;35.25;;;;;2.86;71.97;99716.97;5051485;28;45484;-71
2022/12/09 11:07:13;;;;;;;;;45.00;40.50;;;;;2.78;71.76;99688.59;5055294;28;45501;-76
2022/12/09 11:09:47;;;;;;;;;47.75;40.50;;;;;2.88;71.89;99704.81;5055291;28;45450;-74
2022/12/09 11:12:38;;;;;;;;;49.00;42.25;;;;;2.91;71.85;99703.00;5055856;28;45383;-71
2022/12/09 11:15:23;;;;;;;;;53.00;46.00;;;;;2.89;71.57;99691.81;5057329;28;46109;-75
2022/12/09 11:18:26;;;;;;;;;47.25;41.25;;;;;2.95;71.34;99695.97;5055386;28;45484;-73
2022/12/09 11:21:04;;;;;;;;;45.50;41.25;;;;;2.86;71.91;99693.59;5055055;28;45489;-74
2022/12/09 11:23:30;;;;;;;;;57.25;49.50;;;;;2.86;70.80;99699.66;5054786;28;45514;-72
2022/12/09 11:26:00;;;;;;;;;50.25;43.00;;;;;2.84;70.99;99697.97;5054298;28;46387;-74
2022/12/09 11:28:25;;;;;;;;;48.50;41.00;;;;;2.85;71.78;99694.47;5055131;28;45393;-75
2022/12/09 11:30:56;;;;;;;;;44.50;40.25;;;;;2.83;71.91;99689.34;5055476;28;45480;-75
2022/12/09 11:33:37;;;;;;;;;45.50;38.75;;;;;2.80;71.83;99681.63;5056205;28;45390;-75